Time,TemperatureF,DewpointF,PressureIn,WindDirection,WindDirectionDegrees,WindSpeedMPH,WindSpeedGustMPH,Humidity,HourlyPrecipIn,Conditions,Clouds,dailyrainin,SoftwareType,DateUTC
2016-12-03 00:04:00,60.3,35.8,30.07,NNE,22,0.0,0.0,40,0.00,CLR,,0.00,WeatherDisplay:10.37,2016-12-03 05:04:00,
2016-12-03 00:09:00,60.1,35.7,30.07,NE,45,0.0,0.0,40,0.00,CLR,,0.00,WeatherDisplay:10.37,2016-12-03 05:09:00,
2016-12-03 00:14:00,59.9,36.1,30.07,WNW,292,1.6,1.6,41,0.00,CLR,,0.00,WeatherDisplay:10.37,2016-12-03 05:14:00,
2016-12-03 00:19:00,60.1,36.3,30.07,NNE,22,1.2,0.0,41,0.00,CLR,,0.00,WeatherDisplay:10.37,2016-12-03 05:19:00,
2016-12-03 00:24:00,60.1,36.9,30.08,NE,45,0.0,0.0,42,0.00,CLR,,0.00,WeatherDisplay:10.37,2016-12-03 05:24:00,
2016-12-03 00:29:00,60.1,36.9,30.07,North,0,2.3,2.3,42,0.00,CLR,,0.00,WeatherDisplay:10.37,2016-12-03 05:29:00,
2016-12-03 00:34:00,59.9,36.7,30.07,NNW,338,0.0,0.0,42,0.00,CLR,,0.00,WeatherDisplay:10.37,2016-12-03 05:34:00,
2016-12-03 00:39:00,59.7,36.6,30.07,NNE,22,0.0,0.0,42,0.00,CLR,,0.00,WeatherDisplay:10.37,2016-12-03 05:39:00,
2016-12-03 00:44:00,59.2,37.3,30.07,NE,45,0.0,0.0,44,0.00,CLR,,0.00,WeatherDisplay:10.37,2016-12-03 05:44:00,
2016-12-03 00:49:00,59.0,37.7,30.07,NE,45,0.0,0.0,45,0.00,CLR,,0.00,WeatherDisplay:10.37,2016-12-03 05:49:00,
2016-12-03 00:54:00,58.8,37.5,30.07,North,0,0.0,0.0,45,0.00,CLR,,0.00,WeatherDisplay:10.37,2016-12-03 05:54:00,
2016-12-03 00:59:00,58.6,37.3,30.07,North,0,0.0,0.0,45,0.00,CLR,,0.00,WeatherDisplay:10.37,2016-12-03 05:59:00,
2016-12-03 01:04:00,58.8,37.5,30.07,NNW,338,0.0,0.0,45,0.00,CLR,,0.00,WeatherDisplay:10.37,2016-12-03 06:04:00,
2016-12-03 01:09:00,58.6,37.3,30.07,NNW,338,0.0,0.0,45,0.00,CLR,,0.00,WeatherDisplay:10.37,2016-12-03 06:09:00,
2016-12-03 01:14:00,58.6,37.3,30.07,NNE,22,0.0,0.0,45,0.00,CLR,,0.00,WeatherDisplay:10.37,2016-12-03 06:14:00,
2016-12-03 01:19:00,58.5,37.2,30.07,SSE,158,0.0,0.0,45,0.00,CLR,,0.00,WeatherDisplay:10.37,2016-12-03 06:19:00,
2016-12-03 01:24:00,58.5,37.2,30.07,SSE,158,0.0,0.0,45,0.00,CLR,,0.00,WeatherDisplay:10.37,2016-12-03 06:24:00,
2016-12-03 01:29:00,58.1,37.4,30.07,NNW,338,0.0,0.0,46,0.00,CLR,,0.00,WeatherDisplay:10.37,2016-12-03 06:29:00,
2016-12-03 01:34:00,58.1,37.4,30.07,NE,45,1.2,0.0,46,0.00,CLR,,0.00,WeatherDisplay:10.37,2016-12-03 06:34:00,
2016-12-03 01:39:00,58.1,37.4,30.07,NE,45,0.0,0.0,46,0.00,CLR,,0.00,WeatherDisplay:10.37,2016-12-03 06:39:00,
2016-12-03 01:44:00,58.1,37.4,30.07,NNW,338,0.0,0.0,46,0.00,CLR,,0.00,WeatherDisplay:10.37,2016-12-03 06:44:00,
2016-12-03 01:49:00,58.3,37.6,30.07,North,0,0.0,0.0,46,0.00,CLR,,0.00,WeatherDisplay:10.37,2016-12-03 06:49:00,
2016-12-03 01:54:00,58.3,37.6,30.07,WNW,292,0.0,0.0,46,0.00,CLR,,0.00,WeatherDisplay:10.37,2016-12-03 06:54:00,
2016-12-03 01:59:00,58.3,38.1,30.06,North,0,0.0,0.0,47,0.00,CLR,,0.00,WeatherDisplay:10.37,2016-12-03 06:59:00,
2016-12-03 02:04:00,58.5,38.3,30.06,NNW,338,0.0,0.0,47,0.00,CLR,,0.00,WeatherDisplay:10.37,2016-12-03 07:04:00,
2016-12-03 02:09:00,58.3,38.1,30.06,North,0,0.0,0.0,47,0.00,CLR,,0.00,WeatherDisplay:10.37,2016-12-03 07:09:00,
2016-12-03 02:14:00,58.5,37.7,30.06,NNE,22,0.0,0.0,46,0.00,CLR,,0.00,WeatherDisplay:10.37,2016-12-03 07:14:00,
2016-12-03 02:19:00,58.5,37.7,30.06,NNW,338,0.0,0.0,46,0.00,CLR,,0.00,WeatherDisplay:10.37,2016-12-03 07:19:00,
2016-12-03 02:24:00,58.3,37.6,30.07,North,0,0.0,0.0,46,0.00,CLR,,0.00,WeatherDisplay:10.37,2016-12-03 07:24:00,
2016-12-03 02:29:00,58.3,37.0,30.07,NNW,338,0.0,0.0,45,0.00,CLR,,0.00,WeatherDisplay:10.37,2016-12-03 07:29:00,
2016-12-03 02:34:00,58.5,37.2,30.07,North,0,0.0,0.0,45,0.00,CLR,,0.00,WeatherDisplay:10.37,2016-12-03 07:34:00,
2016-12-03 02:39:00,58.3,37.0,30.06,NE,45,1.2,1.2,45,0.00,CLR,,0.00,WeatherDisplay:10.37,2016-12-03 07:39:00,
2016-12-03 02:44:00,58.5,37.2,30.06,NNW,338,1.2,1.2,45,0.00,CLR,,0.00,WeatherDisplay:10.37,2016-12-03 07:44:00,
2016-12-03 02:49:00,58.5,37.2,30.06,NNW,338,0.0,0.0,45,0.00,CLR,,0.00,WeatherDisplay:10.37,2016-12-03 07:49:00,
2016-12-03 02:54:00,58.5,37.2,30.06,North,0,2.0,2.0,45,0.00,CLR,,0.00,WeatherDisplay:10.37,2016-12-03 07:54:00,
2016-12-03 02:59:00,58.5,37.2,30.06,NNW,338,3.5,3.5,45,0.00,CLR,,0.00,WeatherDisplay:10.37,2016-12-03 07:59:00,
2016-12-03 03:04:00,58.5,37.2,30.07,NNW,338,0.0,0.0,45,0.00,CLR,,0.00,WeatherDisplay:10.37,2016-12-03 08:04:00,
2016-12-03 03:09:00,58.5,37.7,30.06,NNW,338,0.0,0.0,46,0.00,CLR,,0.00,WeatherDisplay:10.37,2016-12-03 08:09:00,
2016-12-03 03:14:00,58.3,38.1,30.06,WNW,292,0.0,0.0,47,0.00,CLR,,0.00,WeatherDisplay:10.37,2016-12-03 08:14:00,
2016-12-03 03:19:00,58.3,38.1,30.06,NW,315,0.0,0.0,47,0.00,CLR,,0.00,WeatherDisplay:10.37,2016-12-03 08:19:00,
2016-12-03 03:24:00,58.1,38.5,30.06,NNW,338,0.0,0.0,48,0.00,CLR,,0.00,WeatherDisplay:10.37,2016-12-03 08:24:00,
2016-12-03 03:29:00,58.1,38.5,30.06,NNE,22,0.0,0.0,48,0.00,CLR,,0.00,WeatherDisplay:10.37,2016-12-03 08:29:00,
2016-12-03 03:34:00,58.1,38.5,30.06,SSW,202,0.0,0.0,48,0.00,CLR,,0.00,WeatherDisplay:10.37,2016-12-03 08:34:00,
2016-12-03 03:39:00,58.1,38.0,30.06,North,0,1.2,1.2,47,0.00,CLR,,0.00,WeatherDisplay:10.37,2016-12-03 08:39:00,
2016-12-03 03:44:00,58.1,38.0,30.06,North,0,0.0,0.4,47,0.00,CLR,,0.00,WeatherDisplay:10.37,2016-12-03 08:44:00,
2016-12-03 03:49:00,58.3,37.6,30.06,NNW,338,0.0,0.0,46,0.00,CLR,,0.00,WeatherDisplay:10.37,2016-12-03 08:49:00,
2016-12-03 03:54:00,58.1,37.4,30.06,NNE,22,0.9,0.9,46,0.00,CLR,,0.00,WeatherDisplay:10.37,2016-12-03 08:54:00,
2016-12-03 03:59:00,58.1,38.0,30.06,NE,45,0.0,0.0,47,0.00,CLR,,0.00,WeatherDisplay:10.37,2016-12-03 08:59:00,
2016-12-03 04:04:00,57.9,37.8,30.06,North,0,0.0,0.0,47,0.00,CLR,,0.00,WeatherDisplay:10.37,2016-12-03 09:04:00,
2016-12-03 04:09:00,57.9,38.3,30.06,NNW,338,0.0,0.0,48,0.00,CLR,,0.00,WeatherDisplay:10.37,2016-12-03 09:09:00,
2016-12-03 04:14:00,57.9,38.3,30.05,NE,45,0.0,0.0,48,0.00,CLR,,0.00,WeatherDisplay:10.37,2016-12-03 09:14:00,
2016-12-03 04:19:00,57.7,38.2,30.05,NNE,22,0.0,0.0,48,0.00,CLR,,0.00,WeatherDisplay:10.37,2016-12-03 09:19:00,
2016-12-03 04:24:00,57.7,38.7,30.05,NNW,338,2.0,2.0,49,0.00,CLR,,0.00,WeatherDisplay:10.37,2016-12-03 09:24:00,
2016-12-03 04:29:00,57.7,38.7,30.06,NNE,22,0.0,0.0,49,0.00,CLR,,0.00,WeatherDisplay:10.37,2016-12-03 09:29:00,
2016-12-03 04:34:00,57.6,39.0,30.05,North,0,0.0,0.0,50,0.00,CLR,,0.00,WeatherDisplay:10.37,2016-12-03 09:34:00,
2016-12-03 04:39:00,57.6,39.6,30.05,North,0,1.2,1.2,51,0.00,CLR,,0.00,WeatherDisplay:10.37,2016-12-03 09:39:00,
2016-12-03 04:44:00,57.6,39.6,30.05,NNW,338,0.0,0.0,51,0.00,CLR,,0.00,WeatherDisplay:10.37,2016-12-03 09:44:00,
2016-12-03 04:49:00,57.4,39.9,30.06,NNE,22,0.0,0.0,52,0.00,CLR,,0.00,WeatherDisplay:10.37,2016-12-03 09:49:00,
2016-12-03 04:54:00,57.4,40.4,30.06,North,0,0.0,0.0,53,0.00,CLR,,0.00,WeatherDisplay:10.37,2016-12-03 09:54:00,
2016-12-03 04:59:00,57.4,40.4,30.06,NNE,22,0.0,0.0,53,0.00,CLR,,0.00,WeatherDisplay:10.37,2016-12-03 09:59:00,
2016-12-03 05:04:00,57.4,40.4,30.06,NNE,22,0.0,0.0,53,0.00,FEW,,0.00,WeatherDisplay:10.37,2016-12-03 10:04:00,
2016-12-03 05:09:00,57.4,40.9,30.06,NNE,22,0.0,0.0,54,0.00,FEW,,0.00,WeatherDisplay:10.37,2016-12-03 10:09:00,
2016-12-03 05:14:00,57.0,40.5,30.06,NE,45,0.0,0.0,54,0.00,FEW,,0.00,WeatherDisplay:10.37,2016-12-03 10:14:00,
2016-12-03 05:19:00,57.2,41.2,30.05,NNE,22,0.0,0.0,55,0.00,FEW,,0.00,WeatherDisplay:10.37,2016-12-03 10:19:00,
2016-12-03 05:24:00,57.2,41.6,30.06,NNW,338,0.0,0.0,56,0.00,FEW,,0.00,WeatherDisplay:10.37,2016-12-03 10:24:00,
2016-12-03 05:29:00,57.4,41.8,30.06,NNE,22,2.3,2.3,56,0.00,FEW,,0.00,WeatherDisplay:10.37,2016-12-03 10:29:00,
2016-12-03 05:34:00,57.4,41.8,30.06,North,0,0.0,0.0,56,0.00,FEW,,0.00,WeatherDisplay:10.37,2016-12-03 10:34:00,
2016-12-03 05:39:00,57.4,41.8,30.06,NNE,22,0.0,0.0,56,0.00,FEW,,0.00,WeatherDisplay:10.37,2016-12-03 10:39:00,
2016-12-03 05:44:00,57.4,41.8,30.06,NNW,338,0.0,0.0,56,0.00,FEW,,0.00,WeatherDisplay:10.37,2016-12-03 10:44:00,
2016-12-03 05:49:00,57.2,42.1,30.06,NNW,338,0.0,0.0,57,0.00,FEW,,0.00,WeatherDisplay:10.37,2016-12-03 10:49:00,
2016-12-03 05:54:00,57.4,42.3,30.06,SSE,158,5.1,5.1,57,0.00,FEW,,0.00,WeatherDisplay:10.37,2016-12-03 10:54:00,
2016-12-03 05:59:00,57.4,42.7,30.06,NNE,22,0.0,0.0,58,0.00,FEW,,0.00,WeatherDisplay:10.37,2016-12-03 10:59:00,
2016-12-03 06:04:00,57.4,42.7,30.06,SSE,158,0.0,0.0,58,0.00,FEW,,0.00,WeatherDisplay:10.37,2016-12-03 11:04:00,
2016-12-03 06:09:00,57.4,42.7,30.07,NW,315,3.5,3.5,58,0.00,FEW,,0.00,WeatherDisplay:10.37,2016-12-03 11:09:00,
2016-12-03 06:14:00,57.4,43.2,30.06,NNE,22,0.0,0.0,59,0.00,FEW,,0.00,WeatherDisplay:10.37,2016-12-03 11:14:00,
2016-12-03 06:19:00,57.2,43.0,30.07,NNW,338,1.2,1.3,59,0.00,FEW,,0.00,WeatherDisplay:10.37,2016-12-03 11:19:00,
2016-12-03 06:24:00,57.2,43.0,30.07,NNE,22,0.0,0.0,59,0.00,FEW,,0.00,WeatherDisplay:10.37,2016-12-03 11:24:00,
2016-12-03 06:29:00,57.0,42.8,30.07,NNE,22,0.0,0.0,59,0.00,FEW,,0.00,WeatherDisplay:10.37,2016-12-03 11:29:00,
2016-12-03 06:34:00,56.8,43.1,30.07,North,0,0.0,0.0,60,0.00,FEW,,0.00,WeatherDisplay:10.37,2016-12-03 11:34:00,
2016-12-03 06:39:00,56.8,43.1,30.07,South,180,0.0,0.0,60,0.00,FEW,,0.00,WeatherDisplay:10.37,2016-12-03 11:39:00,
2016-12-03 06:44:00,56.8,43.5,30.07,NE,45,0.0,0.0,61,0.00,FEW,,0.00,WeatherDisplay:10.37,2016-12-03 11:44:00,
2016-12-03 06:49:00,56.8,43.5,30.07,NNE,22,0.0,0.0,61,0.00,FEW,,0.00,WeatherDisplay:10.37,2016-12-03 11:49:00,
2016-12-03 06:54:00,56.8,44.0,30.07,NNW,338,0.0,0.0,62,0.00,FEW,,0.00,WeatherDisplay:10.37,2016-12-03 11:54:00,
2016-12-03 06:59:00,56.8,44.0,30.08,WNW,292,0.0,0.0,62,0.00,FEW,,0.00,WeatherDisplay:10.37,2016-12-03 11:59:00,
2016-12-03 07:04:00,56.8,44.0,30.07,NNW,338,0.0,0.0,62,0.00,FEW,,0.00,WeatherDisplay:10.37,2016-12-03 12:04:00,
2016-12-03 07:09:00,56.8,44.4,30.07,NE,45,0.0,0.0,63,0.00,FEW,,0.00,WeatherDisplay:10.37,2016-12-03 12:09:00,
2016-12-03 07:14:00,56.8,44.4,30.07,NNW,338,0.0,0.0,63,0.00,FEW,,0.00,WeatherDisplay:10.37,2016-12-03 12:14:00,
2016-12-03 07:19:00,56.8,44.4,30.08,NE,45,0.0,0.0,63,0.00,FEW,,0.00,WeatherDisplay:10.37,2016-12-03 12:19:00,
2016-12-03 07:24:00,56.8,44.8,30.08,WNW,292,0.0,0.0,64,0.00,FEW,,0.00,WeatherDisplay:10.37,2016-12-03 12:24:00,
2016-12-03 07:29:00,57.0,45.0,30.08,North,0,0.7,0.7,64,0.00,FEW,,0.00,WeatherDisplay:10.37,2016-12-03 12:29:00,
2016-12-03 07:34:00,57.0,45.0,30.07,NNE,22,2.3,2.3,64,0.00,FEW,,0.00,WeatherDisplay:10.37,2016-12-03 12:34:00,
2016-12-03 07:39:00,57.2,45.1,30.08,NNW,338,1.2,0.0,64,0.00,FEW,,0.00,WeatherDisplay:10.37,2016-12-03 12:39:00,
2016-12-03 07:44:00,57.6,45.9,30.08,NE,45,0.0,0.0,65,0.00,FEW,,0.00,WeatherDisplay:10.37,2016-12-03 12:44:00,
2016-12-03 07:54:00,58.6,46.5,30.08,North,0,0.0,0.0,64,0.00,FEW,,0.00,WeatherDisplay:10.37,2016-12-03 12:54:00,
2016-12-03 07:59:00,59.4,46.3,30.08,NNW,338,0.0,0.0,62,0.00,FEW,,0.00,WeatherDisplay:10.37,2016-12-03 12:59:00,
2016-12-03 08:04:00,59.4,46.3,30.09,NNW,338,0.0,0.0,62,0.00,FEW,,0.00,WeatherDisplay:10.37,2016-12-03 13:04:00,
2016-12-03 08:09:00,59.7,46.7,30.09,North,0,0.0,0.0,62,0.00,FEW,,0.00,WeatherDisplay:10.37,2016-12-03 13:09:00,
2016-12-03 08:14:00,60.3,46.3,30.08,NNW,338,1.2,1.2,60,0.00,FEW,,0.00,WeatherDisplay:10.37,2016-12-03 13:14:00,
2016-12-03 08:19:00,60.3,46.3,30.08,North,0,0.0,0.0,60,0.00,FEW,,0.00,WeatherDisplay:10.37,2016-12-03 13:19:00,
2016-12-03 08:24:00,60.3,45.9,30.08,NNE,22,0.0,0.0,59,0.00,FEW,,0.00,WeatherDisplay:10.37,2016-12-03 13:24:00,
2016-12-03 08:29:00,61.0,47.0,30.09,NNE,22,2.3,2.3,60,0.00,FEW,,0.00,WeatherDisplay:10.37,2016-12-03 13:29:00,
2016-12-03 08:34:00,62.1,47.6,30.08,NNE,22,0.0,0.0,59,0.00,FEW,,0.00,WeatherDisplay:10.37,2016-12-03 13:34:00,
2016-12-03 08:39:00,63.7,48.2,30.08,WNW,292,2.5,2.5,57,0.00,FEW,,0.00,WeatherDisplay:10.37,2016-12-03 13:39:00,
2016-12-03 08:44:00,65.7,49.5,30.08,NE,45,1.2,1.2,56,0.00,FEW,,0.00,WeatherDisplay:10.37,2016-12-03 13:44:00,
2016-12-03 08:49:00,66.6,48.4,30.08,North,0,0.0,0.0,52,0.00,FEW,,0.00,WeatherDisplay:10.37,2016-12-03 13:49:00,
2016-12-03 08:54:00,67.6,47.8,30.08,NNE,22,0.0,0.0,49,0.00,FEW,,0.00,WeatherDisplay:10.37,2016-12-03 13:54:00,
2016-12-03 08:59:00,68.7,48.2,30.07,NNW,338,0.0,0.0,48,0.00,FEW,,0.00,WeatherDisplay:10.37,2016-12-03 13:59:00,
2016-12-03 09:09:00,69.8,46.9,30.08,NE,45,3.5,3.5,44,0.00,FEW,,0.00,WeatherDisplay:10.37,2016-12-03 14:09:00,
2016-12-03 09:14:00,70.2,47.2,30.08,NE,45,2.3,2.3,44,0.00,FEW,,0.00,WeatherDisplay:10.37,2016-12-03 14:14:00,
2016-12-03 09:19:00,70.5,47.5,30.08,North,0,0.0,0.0,44,0.00,FEW,,0.00,WeatherDisplay:10.37,2016-12-03 14:19:00,
2016-12-03 09:24:00,71.1,47.4,30.08,NNW,338,3.5,3.5,43,0.00,FEW,,0.00,WeatherDisplay:10.37,2016-12-03 14:24:00,
2016-12-03 09:29:00,71.4,47.1,30.08,North,0,0.0,0.0,42,0.00,FEW,,0.00,WeatherDisplay:10.37,2016-12-03 14:29:00,
2016-12-03 09:34:00,72.0,47.6,30.08,NNW,338,1.2,1.2,42,0.00,FEW,,0.00,WeatherDisplay:10.37,2016-12-03 14:34:00,
2016-12-03 09:39:00,72.3,47.3,30.09,NNW,338,0.7,0.0,41,0.00,FEW,,0.00,WeatherDisplay:10.37,2016-12-03 14:39:00,
2016-12-03 09:44:00,72.7,47.0,30.09,NE,45,1.2,1.2,40,0.00,FEW,,0.00,WeatherDisplay:10.37,2016-12-03 14:44:00,
2016-12-03 09:49:00,72.7,47.0,30.08,South,180,2.7,2.7,40,0.00,FEW,,0.00,WeatherDisplay:10.37,2016-12-03 14:49:00,
2016-12-03 09:54:00,73.0,47.3,30.08,SSW,202,1.3,0.0,40,0.00,FEW,,0.00,WeatherDisplay:10.37,2016-12-03 14:54:00,
2016-12-03 09:59:00,73.0,46.6,30.09,NNE,22,0.0,0.0,39,0.00,FEW,,0.00,WeatherDisplay:10.37,2016-12-03 14:59:00,
2016-12-03 10:04:00,73.4,46.9,30.09,North,0,2.5,2.5,39,0.00,FEW,,0.00,WeatherDisplay:10.37,2016-12-03 15:04:00,
2016-12-03 10:09:00,73.6,47.1,30.09,South,180,0.0,0.0,39,0.00,FEW,,0.00,WeatherDisplay:10.37,2016-12-03 15:09:00,
2016-12-03 10:14:00,73.9,47.4,30.08,NNE,22,0.0,0.0,39,0.00,FEW,,0.00,WeatherDisplay:10.37,2016-12-03 15:14:00,
2016-12-03 10:19:00,74.3,47.7,30.08,NNE,22,0.0,0.0,39,0.00,FEW,,0.00,WeatherDisplay:10.37,2016-12-03 15:19:00,
2016-12-03 10:24:00,75.2,47.1,30.08,NNE,22,2.9,2.9,37,0.00,FEW,,0.00,WeatherDisplay:10.37,2016-12-03 15:24:00,
2016-12-03 10:29:00,75.4,47.3,30.08,NNE,22,0.0,0.0,37,0.00,FEW,,0.00,WeatherDisplay:10.37,2016-12-03 15:29:00,
2016-12-03 10:34:00,75.4,47.3,30.08,South,180,1.2,1.2,37,0.00,FEW,,0.00,WeatherDisplay:10.37,2016-12-03 15:34:00,
2016-12-03 10:39:00,75.9,47.8,30.08,SSE,158,2.3,2.3,37,0.00,FEW,,0.00,WeatherDisplay:10.37,2016-12-03 15:39:00,
2016-12-03 10:44:00,75.9,47.8,30.07,NNE,22,0.0,0.0,37,0.00,FEW,,0.00,WeatherDisplay:10.37,2016-12-03 15:44:00,
2016-12-03 10:49:00,76.1,47.9,30.07,NE,45,0.0,0.0,37,0.00,FEW,,0.00,WeatherDisplay:10.37,2016-12-03 15:49:00,
2016-12-03 10:54:00,76.6,47.7,30.07,NNE,22,1.3,1.3,36,0.00,FEW,,0.00,WeatherDisplay:10.37,2016-12-03 15:54:00,
2016-12-03 10:59:00,76.8,47.1,30.07,North,0,3.5,0.0,35,0.00,FEW,,0.00,WeatherDisplay:10.37,2016-12-03 15:59:00,
2016-12-03 11:04:00,77.2,47.4,30.07,NNE,22,0.0,0.0,35,0.00,FEW,,0.00,WeatherDisplay:10.37,2016-12-03 16:04:00,
2016-12-03 11:09:00,77.7,47.9,30.07,NE,45,0.0,0.0,35,0.00,FEW,,0.00,WeatherDisplay:10.37,2016-12-03 16:09:00,
2016-12-03 11:14:00,78.1,47.4,30.06,North,0,0.0,0.0,34,0.00,FEW,,0.00,WeatherDisplay:10.37,2016-12-03 16:14:00,
2016-12-03 11:19:00,78.4,47.7,30.06,NNE,22,0.0,0.0,34,0.00,FEW,,0.00,WeatherDisplay:10.37,2016-12-03 16:19:00,
2016-12-03 11:24:00,78.1,46.6,30.06,NNE,22,1.6,1.6,33,0.00,FEW,,0.00,WeatherDisplay:10.37,2016-12-03 16:24:00,
2016-12-03 11:29:00,78.1,47.4,30.06,South,180,3.6,3.6,34,0.00,FEW,,0.00,WeatherDisplay:10.37,2016-12-03 16:29:00,
2016-12-03 11:34:00,77.9,47.3,30.05,SSE,158,6.9,0.0,34,0.00,FEW,,0.00,WeatherDisplay:10.37,2016-12-03 16:34:00,
2016-12-03 11:39:00,77.9,48.0,30.05,NNE,22,0.0,0.0,35,0.00,FEW,,0.00,WeatherDisplay:10.37,2016-12-03 16:39:00,
2016-12-03 11:44:00,78.3,48.4,30.04,NNE,22,2.5,2.5,35,0.00,FEW,,0.00,WeatherDisplay:10.37,2016-12-03 16:44:00,
2016-12-03 11:49:00,78.4,47.7,30.04,NNE,22,3.5,3.8,34,0.00,FEW,,0.00,WeatherDisplay:10.37,2016-12-03 16:49:00,
2016-12-03 11:54:00,78.4,48.5,30.04,NNE,22,2.5,2.5,35,0.00,FEW,,0.00,WeatherDisplay:10.37,2016-12-03 16:54:00,
2016-12-03 11:59:00,79.0,49.0,30.04,NNE,22,1.2,1.3,35,0.00,FEW,,0.00,WeatherDisplay:10.37,2016-12-03 16:59:00,
2016-12-03 12:04:00,79.7,49.6,30.03,North,0,0.0,0.0,35,0.00,FEW,,0.00,WeatherDisplay:10.37,2016-12-03 17:04:00,
2016-12-03 12:09:00,80.2,49.3,30.03,ENE,68,0.0,0.0,34,0.00,FEW,,0.00,WeatherDisplay:10.37,2016-12-03 17:09:00,
2016-12-03 12:14:00,80.6,49.6,30.02,South,180,1.2,1.3,34,0.00,FEW,,0.00,WeatherDisplay:10.37,2016-12-03 17:14:00,
2016-12-03 12:19:00,81.1,50.1,30.02,NNE,22,0.0,0.0,34,0.00,FEW,,0.00,WeatherDisplay:10.37,2016-12-03 17:19:00,
2016-12-03 12:24:00,81.5,50.4,30.02,NNE,22,1.2,1.2,34,0.00,FEW,,0.00,WeatherDisplay:10.37,2016-12-03 17:24:00,
2016-12-03 12:29:00,81.9,49.9,30.01,NNE,22,3.5,0.0,33,0.00,FEW,,0.00,WeatherDisplay:10.37,2016-12-03 17:29:00,
2016-12-03 12:34:00,82.6,50.6,30.01,NE,45,1.2,1.2,33,0.00,FEW,,0.00,WeatherDisplay:10.37,2016-12-03 17:34:00,
2016-12-03 12:39:00,82.9,50.9,30.01,NE,45,0.0,0.0,33,0.00,FEW,,0.00,WeatherDisplay:10.37,2016-12-03 17:39:00,
2016-12-03 12:44:00,83.1,50.2,30.01,South,180,2.5,2.5,32,0.00,FEW,,0.00,WeatherDisplay:10.37,2016-12-03 17:44:00,
2016-12-03 12:49:00,82.8,49.0,30.00,South,180,3.5,3.5,31,0.00,FEW,,0.00,WeatherDisplay:10.37,2016-12-03 17:49:00,
2016-12-03 12:54:00,82.8,49.9,30.00,NE,45,0.0,0.0,32,0.00,FEW,,0.00,WeatherDisplay:10.37,2016-12-03 17:54:00,
2016-12-03 12:59:00,83.1,49.3,29.99,SSE,158,3.5,0.0,31,0.00,FEW,,0.00,WeatherDisplay:10.37,2016-12-03 17:59:00,
2016-12-03 13:04:00,83.3,49.5,29.99,NE,45,3.5,3.5,31,0.00,FEW,,0.00,WeatherDisplay:10.37,2016-12-03 18:04:00,
2016-12-03 13:09:00,83.7,49.8,29.99,NNW,338,0.0,0.0,31,0.00,FEW,,0.00,WeatherDisplay:10.37,2016-12-03 18:09:00,
2016-12-03 13:14:00,83.8,49.1,29.99,North,0,0.0,0.0,30,0.00,FEW,,0.00,WeatherDisplay:10.37,2016-12-03 18:14:00,
2016-12-03 13:19:00,84.0,49.2,29.99,SSE,158,3.5,3.7,30,0.00,FEW,,0.00,WeatherDisplay:10.37,2016-12-03 18:19:00,
2016-12-03 13:24:00,84.0,49.2,29.99,NNW,338,0.0,0.0,30,0.00,FEW,,0.00,WeatherDisplay:10.37,2016-12-03 18:24:00,
2016-12-03 13:29:00,84.9,50.9,29.99,SSE,158,1.6,1.6,31,0.00,FEW,,0.00,WeatherDisplay:10.37,2016-12-03 18:29:00,
2016-12-03 13:34:00,85.6,50.6,29.99,North,0,0.0,0.0,30,0.00,FEW,,0.00,WeatherDisplay:10.37,2016-12-03 18:34:00,
2016-12-03 13:39:00,86.2,50.2,29.98,SSE,158,0.0,0.0,29,0.00,FEW,,0.00,WeatherDisplay:10.37,2016-12-03 18:39:00,
2016-12-03 13:44:00,86.2,49.3,29.98,NNE,22,0.0,0.0,28,0.00,FEW,,0.00,WeatherDisplay:10.37,2016-12-03 18:44:00,
2016-12-03 13:49:00,85.6,47.8,29.98,South,180,0.0,0.0,27,0.00,FEW,,0.00,WeatherDisplay:10.37,2016-12-03 18:49:00,